Dorchester, United Kingdom
Current Conditions -  °F | °C
As of 12:50 AM on Tuesday 25 Nov 2014 (Local Time) from EGDY Reporting Station
Haze Haze  
Wind Chill: 28°   Ceiling: Unl
Heat Index: 28°   Visibility: 1.2mi
Dew Point: 27°   Wind: 2mph
Humidity: 93%   Direction: 280°W
Pressure: 30.27"   Gusts: NA
Location:  50.72°N, 2.43°W
Report Text: EGDY 250050Z 28002KT 2000 BR FEW000 SCT002 M02/M03 Q1025 AMB
Loading
Personal Weather Stations






























Interactive Weather Map New forecast layout! Learn more

10-Day Weather Forecast

Advertisements
Track Severe Weather on mobile